GBFRV EGKK-LIMJ
Flight info
| Callsign | GBFRV |
|---|---|
| Flight time | 1h 22m |
| Altitude | 45000 |
| Route | SFD Y47 BENBO UL612 OGULO DCT OKASI DCT OKEKO DCT MOU DCT MADIV DCT MOKIP DCT TUFTA DCT GEVEA/N0499F330 DCT MOBLO DCT LURAG DCT OBUXA DCT TOP/N0459F190 M730 TESTO |
| Aircraft | C750/M-SBDE3FGHRWXY/S |
Departure
| Time | 2026-05-06 10:48 |
|---|---|
| Airport | London Gatwick Airport (EGKK) |
Arrival
| Time | 2026-05-06 12:11 |
|---|---|
| Airport | Genoa Cristoforo Colombo Airport (LIMJ) |
| Time | Latitude | Longitude | Altitude | Speed | Heading |
|---|---|---|---|---|---|
| 2026-05-06 10:33 | 51.16084 | -0.18282 | 200 ft | 0 kts | 270° |
| 2026-05-06 10:39 | 51.16086 | -0.18268 | 207 ft | 4 kts | 197° |
| 2026-05-06 10:39 | 51.16093 | -0.18266 | 207 ft | 0 kts | 169° |
| 2026-05-06 10:41 | 51.16091 | -0.18266 | 207 ft | 2 kts | 171° |
| 2026-05-06 10:42 | 51.16063 | -0.18269 | 205 ft | 12 kts | 183° |
| 2026-05-06 10:42 | 51.15918 | -0.18236 | 200 ft | 28 kts | 167° |
| 2026-05-06 10:42 | 51.15719 | -0.18169 | 200 ft | 21 kts | 172° |
| 2026-05-06 10:42 | 51.15677 | -0.18193 | 206 ft | 1 kts | 222° |
| 2026-05-06 10:43 | 51.15634 | -0.18249 | 200 ft | 12 kts | 203° |
| 2026-05-06 10:43 | 51.15594 | -0.18263 | 203 ft | 8 kts | 195° |
| 2026-05-06 10:43 | 51.15487 | -0.18312 | 209 ft | 23 kts | 159° |
| 2026-05-06 10:44 | 51.15285 | -0.18240 | 200 ft | 5 kts | 167° |
| 2026-05-06 10:44 | 51.15197 | -0.18238 | 205 ft | 19 kts | 221° |
| 2026-05-06 10:44 | 51.15176 | -0.18373 | 200 ft | 9 kts | 260° |
| 2026-05-06 10:44 | 51.15169 | -0.18443 | 207 ft | 11 kts | 262° |
| 2026-05-06 10:45 | 51.15151 | -0.18585 | 200 ft | 24 kts | 258° |
| 2026-05-06 10:45 | 51.15100 | -0.18950 | 207 ft | 44 kts | 258° |
| 2026-05-06 10:45 | 51.15027 | -0.19481 | 205 ft | 50 kts | 257° |
| 2026-05-06 10:45 | 51.14952 | -0.20028 | 203 ft | 51 kts | 257° |
| 2026-05-06 10:46 | 51.14875 | -0.20584 | 205 ft | 51 kts | 258° |
| 2026-05-06 10:46 | 51.14804 | -0.21099 | 201 ft | 36 kts | 257° |
| 2026-05-06 10:46 | 51.14751 | -0.21375 | 205 ft | 20 kts | 234° |
| 2026-05-06 10:46 | 51.14670 | -0.21369 | 202 ft | 10 kts | 134° |
| 2026-05-06 10:47 | 51.14626 | -0.21330 | 200 ft | 4 kts | 166° |
| 2026-05-06 10:47 | 51.14591 | -0.21317 | 205 ft | 16 kts | 165° |
| 2026-05-06 10:47 | 51.14527 | -0.21117 | 209 ft | 26 kts | 74° |
| 2026-05-06 10:47 | 51.14626 | -0.20400 | 202 ft | 117 kts | 77° |
| 2026-05-06 10:48 | 51.14813 | -0.18919 | 490 ft | 142 kts | 74° |
| 2026-05-06 10:48 | 51.15011 | -0.17342 | 950 ft | 148 kts | 73° |
| 2026-05-06 10:48 | 51.15253 | -0.15690 | 1471 ft | 160 kts | 72° |
| 2026-05-06 10:48 | 51.15528 | -0.13844 | 2022 ft | 183 kts | 72° |
| 2026-05-06 10:49 | 51.15812 | -0.11800 | 2598 ft | 193 kts | 74° |
| 2026-05-06 10:49 | 51.16097 | -0.09657 | 3170 ft | 205 kts | 76° |
| 2026-05-06 10:49 | 51.15904 | -0.07368 | 3668 ft | 221 kts | 111° |
| 2026-05-06 10:49 | 51.14849 | -0.05533 | 4180 ft | 236 kts | 148° |
| 2026-05-06 10:50 | 51.13271 | -0.04766 | 4789 ft | 241 kts | 168° |
| 2026-05-06 10:50 | 51.11604 | -0.04261 | 5441 ft | 243 kts | 170° |
| 2026-05-06 10:50 | 51.09933 | -0.03722 | 6024 ft | 253 kts | 169° |
| 2026-05-06 10:50 | 51.08145 | -0.02886 | 6040 ft | 272 kts | 163° |
| 2026-05-06 10:51 | 51.06344 | -0.02027 | 6555 ft | 275 kts | 165° |
| 2026-05-06 10:51 | 51.04497 | -0.01188 | 6989 ft | 281 kts | 165° |
| 2026-05-06 10:51 | 51.02655 | -0.00319 | 7688 ft | 274 kts | 163° |
| 2026-05-06 10:51 | 51.00802 | 0.00569 | 8732 ft | 280 kts | 163° |
| 2026-05-06 10:52 | 50.98918 | 0.01459 | 9804 ft | 284 kts | 163° |
| 2026-05-06 10:52 | 50.97017 | 0.02353 | 10775 ft | 285 kts | 164° |
| 2026-05-06 10:52 | 50.95127 | 0.03246 | 11761 ft | 283 kts | 164° |
| 2026-05-06 10:52 | 50.93245 | 0.04134 | 12778 ft | 282 kts | 165° |
| 2026-05-06 10:53 | 50.91368 | 0.05019 | 13825 ft | 279 kts | 164° |
| 2026-05-06 10:53 | 50.89518 | 0.05890 | 14774 ft | 276 kts | 165° |
| 2026-05-06 10:53 | 50.87687 | 0.06751 | 15740 ft | 272 kts | 166° |
| 2026-05-06 10:53 | 50.85883 | 0.07599 | 16739 ft | 268 kts | 166° |
| 2026-05-06 10:54 | 50.84108 | 0.08431 | 17739 ft | 266 kts | 166° |
| 2026-05-06 10:54 | 50.82573 | 0.09146 | 18197 ft | 281 kts | 166° |
| 2026-05-06 10:54 | 50.82569 | 0.09148 | 18198 ft | 281 kts | 166° |
| 2026-05-06 10:54 | 50.80637 | 0.10047 | 18697 ft | 296 kts | 165° |
| 2026-05-06 10:55 | 50.78611 | 0.10997 | 19196 ft | 311 kts | 166° |
| 2026-05-06 10:55 | 50.76476 | 0.11864 | 19676 ft | 322 kts | 174° |
| 2026-05-06 10:55 | 50.74232 | 0.11742 | 20117 ft | 326 kts | 184° |
| 2026-05-06 10:55 | 50.71987 | 0.12230 | 20589 ft | 334 kts | 168° |
| 2026-05-06 10:56 | 50.69738 | 0.13254 | 21148 ft | 339 kts | 165° |
| 2026-05-06 10:56 | 50.67446 | 0.14168 | 21699 ft | 341 kts | 171° |
| 2026-05-06 10:56 | 50.65070 | 0.14731 | 22254 ft | 350 kts | 175° |
| 2026-05-06 10:56 | 50.62628 | 0.15233 | 22807 ft | 359 kts | 173° |
| 2026-05-06 10:57 | 50.60147 | 0.15909 | 23365 ft | 368 kts | 171° |
| 2026-05-06 10:57 | 50.57603 | 0.16667 | 23879 ft | 376 kts | 171° |
| 2026-05-06 10:57 | 50.54998 | 0.17364 | 24363 ft | 383 kts | 172° |
| 2026-05-06 10:57 | 50.52332 | 0.18032 | 24853 ft | 389 kts | 172° |
| 2026-05-06 10:58 | 50.49643 | 0.18740 | 25348 ft | 395 kts | 172° |
| 2026-05-06 10:58 | 50.46918 | 0.19486 | 25848 ft | 400 kts | 172° |
| 2026-05-06 10:58 | 50.44164 | 0.20223 | 26358 ft | 404 kts | 172° |
| 2026-05-06 10:58 | 50.41380 | 0.20950 | 26872 ft | 407 kts | 172° |
| 2026-05-06 10:59 | 50.38577 | 0.21686 | 27397 ft | 411 kts | 172° |
| 2026-05-06 10:59 | 50.35742 | 0.22440 | 27935 ft | 415 kts | 172° |
| 2026-05-06 10:59 | 50.32881 | 0.23199 | 28488 ft | 419 kts | 172° |
| 2026-05-06 10:59 | 50.29994 | 0.23958 | 29053 ft | 423 kts | 172° |
| 2026-05-06 11:00 | 50.28067 | 0.24464 | 29424 ft | 425 kts | 172° |
| 2026-05-06 11:00 | 50.24148 | 0.25495 | 30175 ft | 429 kts | 172° |
| 2026-05-06 11:00 | 50.22212 | 0.26140 | 30479 ft | 432 kts | 166° |
| 2026-05-06 11:00 | 50.19389 | 0.27825 | 30950 ft | 438 kts | 156° |
| 2026-05-06 11:01 | 50.16762 | 0.30253 | 31450 ft | 440 kts | 147° |
| 2026-05-06 11:01 | 50.14207 | 0.32905 | 31983 ft | 442 kts | 147° |
| 2026-05-06 11:01 | 50.11636 | 0.35541 | 32520 ft | 444 kts | 147° |
| 2026-05-06 11:01 | 50.09048 | 0.38177 | 33065 ft | 445 kts | 147° |
| 2026-05-06 11:02 | 50.06455 | 0.40833 | 33614 ft | 447 kts | 147° |
| 2026-05-06 11:02 | 50.03857 | 0.43498 | 34138 ft | 448 kts | 147° |
| 2026-05-06 11:02 | 50.01254 | 0.46158 | 34610 ft | 449 kts | 147° |
| 2026-05-06 11:02 | 49.98641 | 0.48819 | 35091 ft | 449 kts | 147° |
| 2026-05-06 11:03 | 49.96025 | 0.51482 | 35572 ft | 450 kts | 147° |
| 2026-05-06 11:03 | 49.93405 | 0.54149 | 36068 ft | 451 kts | 147° |
| 2026-05-06 11:03 | 49.90784 | 0.56813 | 36569 ft | 451 kts | 148° |
| 2026-05-06 11:03 | 49.88146 | 0.59487 | 36944 ft | 456 kts | 148° |
| 2026-05-06 11:04 | 49.85471 | 0.62249 | 36920 ft | 469 kts | 145° |
| 2026-05-06 11:04 | 49.82880 | 0.65415 | 36938 ft | 480 kts | 141° |
| 2026-05-06 11:04 | 49.80301 | 0.68764 | 36939 ft | 488 kts | 141° |
| 2026-05-06 11:05 | 49.75021 | 0.75418 | 36936 ft | 490 kts | 142° |
| 2026-05-06 11:05 | 49.69703 | 0.82059 | 36934 ft | 492 kts | 141° |
| 2026-05-06 11:06 | 49.64423 | 0.88689 | 36929 ft | 492 kts | 142° |
| 2026-05-06 11:06 | 49.59062 | 0.95347 | 36918 ft | 491 kts | 142° |
| 2026-05-06 11:07 | 49.53782 | 1.01929 | 36919 ft | 491 kts | 142° |
| 2026-05-06 11:07 | 49.48450 | 1.08524 | 36916 ft | 492 kts | 142° |
| 2026-05-06 11:08 | 49.43114 | 1.15128 | 36913 ft | 492 kts | 142° |
| 2026-05-06 11:08 | 49.37773 | 1.21704 | 36915 ft | 492 kts | 142° |
| 2026-05-06 11:09 | 49.32433 | 1.28272 | 36914 ft | 492 kts | 142° |
| 2026-05-06 11:09 | 49.27085 | 1.34824 | 36909 ft | 491 kts | 142° |
| 2026-05-06 11:10 | 49.21752 | 1.41344 | 36904 ft | 489 kts | 143° |
| 2026-05-06 11:10 | 49.16426 | 1.47832 | 36901 ft | 489 kts | 143° |
| 2026-05-06 11:11 | 49.11102 | 1.54303 | 36895 ft | 489 kts | 143° |
| 2026-05-06 11:11 | 49.05757 | 1.60780 | 36886 ft | 489 kts | 142° |
| 2026-05-06 11:12 | 49.00435 | 1.67211 | 36891 ft | 487 kts | 143° |
| 2026-05-06 11:12 | 48.95154 | 1.73574 | 36888 ft | 488 kts | 143° |
| 2026-05-06 11:13 | 48.89753 | 1.80062 | 36890 ft | 502 kts | 143° |
| 2026-05-06 11:13 | 48.84208 | 1.86708 | 36893 ft | 511 kts | 143° |
| 2026-05-06 11:14 | 48.78603 | 1.93403 | 36890 ft | 514 kts | 143° |
| 2026-05-06 11:14 | 48.72958 | 2.00128 | 36885 ft | 516 kts | 143° |
| 2026-05-06 11:15 | 48.67317 | 2.06828 | 36882 ft | 513 kts | 143° |
| 2026-05-06 11:15 | 48.61680 | 2.13502 | 36879 ft | 515 kts | 143° |
| 2026-05-06 11:16 | 48.56085 | 2.20320 | 36865 ft | 520 kts | 138° |
| 2026-05-06 11:16 | 48.51011 | 2.28117 | 36877 ft | 521 kts | 135° |
| 2026-05-06 11:17 | 48.45906 | 2.35820 | 36883 ft | 519 kts | 137° |
| 2026-05-06 11:17 | 48.40838 | 2.43474 | 36877 ft | 518 kts | 136° |
| 2026-05-06 11:18 | 48.35728 | 2.51193 | 36880 ft | 521 kts | 137° |
| 2026-05-06 11:18 | 48.30591 | 2.58863 | 36864 ft | 519 kts | 137° |
| 2026-05-06 11:19 | 48.24764 | 2.65147 | 36865 ft | 516 kts | 154° |
| 2026-05-06 11:19 | 48.18301 | 2.69743 | 36872 ft | 514 kts | 155° |
| 2026-05-06 11:20 | 48.11987 | 2.74830 | 36878 ft | 517 kts | 151° |
| 2026-05-06 11:20 | 48.05599 | 2.79645 | 36865 ft | 514 kts | 159° |
| 2026-05-06 11:21 | 47.98956 | 2.83663 | 36873 ft | 516 kts | 158° |
| 2026-05-06 11:21 | 47.92395 | 2.87981 | 36868 ft | 516 kts | 158° |
| 2026-05-06 11:22 | 47.85760 | 2.92081 | 36868 ft | 517 kts | 158° |
| 2026-05-06 11:22 | 47.79171 | 2.96306 | 36862 ft | 514 kts | 158° |
| 2026-05-06 11:23 | 47.72574 | 3.00423 | 36862 ft | 515 kts | 158° |
| 2026-05-06 11:23 | 47.65978 | 3.04585 | 36859 ft | 515 kts | 158° |
| 2026-05-06 11:24 | 47.59413 | 3.08689 | 36863 ft | 515 kts | 158° |
| 2026-05-06 11:24 | 47.52804 | 3.12819 | 36863 ft | 516 kts | 158° |
| 2026-05-06 11:25 | 47.46185 | 3.16940 | 36851 ft | 516 kts | 158° |
| 2026-05-06 11:25 | 47.39562 | 3.21051 | 36853 ft | 516 kts | 158° |
| 2026-05-06 11:26 | 47.32944 | 3.25151 | 36840 ft | 515 kts | 159° |
| 2026-05-06 11:26 | 47.26330 | 3.29233 | 36844 ft | 515 kts | 159° |
| 2026-05-06 11:27 | 47.19724 | 3.33302 | 36840 ft | 514 kts | 159° |
| 2026-05-06 11:27 | 47.13122 | 3.37356 | 36841 ft | 515 kts | 159° |
| 2026-05-06 11:28 | 47.06511 | 3.41406 | 36841 ft | 515 kts | 159° |
| 2026-05-06 11:28 | 46.99898 | 3.45445 | 36842 ft | 515 kts | 159° |
| 2026-05-06 11:29 | 46.93287 | 3.49473 | 36843 ft | 515 kts | 159° |
| 2026-05-06 11:29 | 46.86663 | 3.53498 | 36843 ft | 515 kts | 159° |
| 2026-05-06 11:30 | 46.80059 | 3.57586 | 36833 ft | 517 kts | 156° |
| 2026-05-06 11:30 | 46.74141 | 3.63556 | 36837 ft | 522 kts | 139° |
| 2026-05-06 11:31 | 46.69621 | 3.71846 | 36834 ft | 527 kts | 122° |
| 2026-05-06 11:31 | 46.66886 | 3.81775 | 36844 ft | 532 kts | 106° |
| 2026-05-06 11:32 | 46.65549 | 3.92389 | 36872 ft | 534 kts | 101° |
| 2026-05-06 11:32 | 46.64083 | 4.02891 | 36855 ft | 532 kts | 107° |
| 2026-05-06 11:33 | 46.61998 | 4.13219 | 36859 ft | 533 kts | 107° |
| 2026-05-06 11:33 | 46.60339 | 4.23735 | 36859 ft | 533 kts | 105° |
| 2026-05-06 11:34 | 46.58398 | 4.34134 | 36857 ft | 533 kts | 107° |
| 2026-05-06 11:34 | 46.56610 | 4.44604 | 36844 ft | 534 kts | 106° |
| 2026-05-06 11:35 | 46.54725 | 4.55015 | 36859 ft | 533 kts | 107° |
| 2026-05-06 11:35 | 46.52870 | 4.65443 | 36852 ft | 533 kts | 106° |
| 2026-05-06 11:36 | 46.50995 | 4.75860 | 36861 ft | 533 kts | 107° |
| 2026-05-06 11:36 | 46.49104 | 4.86273 | 36865 ft | 534 kts | 107° |
| 2026-05-06 11:37 | 46.47215 | 4.96690 | 36865 ft | 534 kts | 107° |
| 2026-05-06 11:37 | 46.45314 | 5.07033 | 36873 ft | 535 kts | 107° |
| 2026-05-06 11:38 | 46.43401 | 5.17468 | 36876 ft | 535 kts | 107° |
| 2026-05-06 11:38 | 46.41474 | 5.27884 | 36878 ft | 535 kts | 108° |
| 2026-05-06 11:39 | 46.39541 | 5.38304 | 36888 ft | 535 kts | 108° |
| 2026-05-06 11:39 | 46.37600 | 5.48711 | 36894 ft | 535 kts | 108° |
| 2026-05-06 11:40 | 46.35666 | 5.59117 | 36892 ft | 535 kts | 108° |
| 2026-05-06 11:40 | 46.33713 | 5.69499 | 36895 ft | 535 kts | 108° |
| 2026-05-06 11:41 | 46.31757 | 5.79879 | 36889 ft | 535 kts | 108° |
| 2026-05-06 11:41 | 46.29786 | 5.90263 | 36881 ft | 535 kts | 109° |
| 2026-05-06 11:42 | 46.27822 | 6.00565 | 36860 ft | 535 kts | 109° |
| 2026-05-06 11:42 | 46.25376 | 6.10620 | 36869 ft | 528 kts | 120° |
| 2026-05-06 11:43 | 46.21198 | 6.19189 | 36873 ft | 517 kts | 137° |
| 2026-05-06 11:43 | 46.15853 | 6.26072 | 36891 ft | 514 kts | 144° |
| 2026-05-06 11:44 | 46.07978 | 6.36668 | 36873 ft | 516 kts | 140° |
| 2026-05-06 11:44 | 46.02644 | 6.43560 | 36944 ft | 515 kts | 142° |
| 2026-05-06 11:45 | 45.97402 | 6.50628 | 36946 ft | 517 kts | 141° |
| 2026-05-06 11:45 | 45.92110 | 6.57583 | 36941 ft | 517 kts | 142° |
| 2026-05-06 11:46 | 45.86810 | 6.64594 | 36933 ft | 518 kts | 141° |
| 2026-05-06 11:46 | 45.81504 | 6.71584 | 36925 ft | 516 kts | 142° |
| 2026-05-06 11:47 | 45.76189 | 6.78522 | 36909 ft | 517 kts | 142° |
| 2026-05-06 11:47 | 45.70905 | 6.85414 | 36908 ft | 517 kts | 143° |
| 2026-05-06 11:48 | 45.65584 | 6.92320 | 36892 ft | 517 kts | 143° |
| 2026-05-06 11:48 | 45.60276 | 6.99207 | 36884 ft | 516 kts | 143° |
| 2026-05-06 11:49 | 45.54946 | 7.06105 | 36871 ft | 516 kts | 142° |
| 2026-05-06 11:49 | 45.51078 | 7.12727 | 36859 ft | 529 kts | 129° |
| 2026-05-06 11:50 | 45.47219 | 7.21682 | 36862 ft | 530 kts | 127° |
| 2026-05-06 11:50 | 45.43284 | 7.30552 | 36873 ft | 529 kts | 128° |
| 2026-05-06 11:51 | 45.38741 | 7.38536 | 36862 ft | 512 kts | 143° |
| 2026-05-06 11:51 | 45.33111 | 7.44626 | 36870 ft | 509 kts | 150° |
| 2026-05-06 11:52 | 45.27395 | 7.50543 | 36860 ft | 509 kts | 149° |
| 2026-05-06 11:52 | 45.21654 | 7.56444 | 36858 ft | 510 kts | 150° |
| 2026-05-06 11:53 | 45.15900 | 7.62345 | 36845 ft | 510 kts | 149° |
| 2026-05-06 11:53 | 45.13026 | 7.65301 | 36653 ft | 512 kts | 150° |
| 2026-05-06 11:53 | 45.10184 | 7.68214 | 36101 ft | 494 kts | 150° |
| 2026-05-06 11:54 | 45.07423 | 7.71032 | 35564 ft | 486 kts | 151° |
| 2026-05-06 11:54 | 45.04695 | 7.73807 | 35064 ft | 479 kts | 151° |
| 2026-05-06 11:54 | 45.02006 | 7.76546 | 34573 ft | 472 kts | 152° |
| 2026-05-06 11:54 | 44.99366 | 7.79241 | 34097 ft | 466 kts | 152° |
| 2026-05-06 11:55 | 44.96788 | 7.81864 | 33596 ft | 459 kts | 152° |
| 2026-05-06 11:55 | 44.94206 | 7.84585 | 33019 ft | 460 kts | 148° |
| 2026-05-06 11:55 | 44.91995 | 7.87921 | 32422 ft | 471 kts | 136° |
| 2026-05-06 11:55 | 44.90254 | 7.91802 | 31886 ft | 476 kts | 128° |
| 2026-05-06 11:56 | 44.88613 | 7.95914 | 31382 ft | 474 kts | 128° |
| 2026-05-06 11:56 | 44.86997 | 7.99943 | 30889 ft | 470 kts | 128° |
| 2026-05-06 11:56 | 44.85382 | 8.03914 | 30370 ft | 466 kts | 129° |
| 2026-05-06 11:56 | 44.83773 | 8.07861 | 29883 ft | 462 kts | 129° |
| 2026-05-06 11:57 | 44.82184 | 8.11780 | 29290 ft | 459 kts | 129° |
| 2026-05-06 11:57 | 44.80608 | 8.15675 | 28537 ft | 456 kts | 129° |
| 2026-05-06 11:57 | 44.79040 | 8.19531 | 27806 ft | 451 kts | 129° |
| 2026-05-06 11:57 | 44.77481 | 8.23346 | 27096 ft | 447 kts | 129° |
| 2026-05-06 11:58 | 44.75935 | 8.27130 | 26395 ft | 444 kts | 129° |
| 2026-05-06 11:58 | 44.74404 | 8.30882 | 25725 ft | 441 kts | 128° |
| 2026-05-06 11:58 | 44.72884 | 8.34600 | 25056 ft | 437 kts | 129° |
| 2026-05-06 11:58 | 44.71370 | 8.38294 | 24379 ft | 434 kts | 128° |
| 2026-05-06 11:59 | 44.69885 | 8.41910 | 23760 ft | 431 kts | 128° |
| 2026-05-06 11:59 | 44.68392 | 8.45543 | 23088 ft | 427 kts | 128° |
| 2026-05-06 11:59 | 44.66913 | 8.49145 | 22340 ft | 422 kts | 128° |
| 2026-05-06 11:59 | 44.65450 | 8.52696 | 21637 ft | 418 kts | 127° |
| 2026-05-06 12:00 | 44.64002 | 8.56204 | 20950 ft | 414 kts | 127° |
| 2026-05-06 12:00 | 44.62564 | 8.59685 | 20276 ft | 411 kts | 127° |
| 2026-05-06 12:00 | 44.61137 | 8.63137 | 19618 ft | 407 kts | 127° |
| 2026-05-06 12:00 | 44.59721 | 8.66562 | 18966 ft | 403 kts | 127° |
| 2026-05-06 12:01 | 44.58098 | 8.69684 | 18266 ft | 389 kts | 142° |
| 2026-05-06 12:01 | 44.55903 | 8.71696 | 17485 ft | 371 kts | 160° |
| 2026-05-06 12:01 | 44.53547 | 8.73050 | 16771 ft | 362 kts | 165° |
| 2026-05-06 12:01 | 44.51207 | 8.74314 | 16098 ft | 360 kts | 163° |
| 2026-05-06 12:02 | 44.48934 | 8.75808 | 15420 ft | 363 kts | 156° |
| 2026-05-06 12:02 | 44.46805 | 8.77704 | 14758 ft | 362 kts | 150° |
| 2026-05-06 12:02 | 44.44767 | 8.79733 | 14110 ft | 358 kts | 149° |
| 2026-05-06 12:02 | 44.42724 | 8.81679 | 13425 ft | 351 kts | 152° |
| 2026-05-06 12:03 | 44.40468 | 8.82737 | 12589 ft | 338 kts | 177° |
| 2026-05-06 12:03 | 44.38211 | 8.82610 | 11871 ft | 314 kts | 189° |
| 2026-05-06 12:03 | 44.36111 | 8.82139 | 11208 ft | 298 kts | 192° |
| 2026-05-06 12:03 | 44.34115 | 8.81618 | 10551 ft | 286 kts | 193° |
| 2026-05-06 12:04 | 44.32194 | 8.81103 | 9850 ft | 278 kts | 193° |
| 2026-05-06 12:04 | 44.30305 | 8.80593 | 9049 ft | 275 kts | 193° |
| 2026-05-06 12:04 | 44.28497 | 8.80097 | 9041 ft | 264 kts | 193° |
| 2026-05-06 12:04 | 44.26675 | 8.79553 | 8492 ft | 268 kts | 198° |
| 2026-05-06 12:05 | 44.25155 | 8.78134 | 7792 ft | 264 kts | 227° |
| 2026-05-06 12:05 | 44.24414 | 8.75828 | 7143 ft | 266 kts | 259° |
| 2026-05-06 12:05 | 44.24759 | 8.73287 | 6508 ft | 276 kts | 292° |
| 2026-05-06 12:05 | 44.26112 | 8.71365 | 5922 ft | 288 kts | 324° |
| 2026-05-06 12:06 | 44.28080 | 8.70715 | 5290 ft | 297 kts | 358° |
| 2026-05-06 12:06 | 44.30113 | 8.71177 | 4820 ft | 295 kts | 12° |
| 2026-05-06 12:06 | 44.32105 | 8.71835 | 4306 ft | 296 kts | 14° |
| 2026-05-06 12:06 | 44.34077 | 8.72480 | 3991 ft | 282 kts | 13° |
| 2026-05-06 12:07 | 44.35912 | 8.72436 | 3912 ft | 250 kts | 339° |
| 2026-05-06 12:07 | 44.37147 | 8.71135 | 3924 ft | 204 kts | 305° |
| 2026-05-06 12:07 | 44.38292 | 8.70142 | 3821 ft | 194 kts | 348° |
| 2026-05-06 12:07 | 44.39584 | 8.70438 | 3495 ft | 189 kts | 26° |
| 2026-05-06 12:08 | 44.40650 | 8.71429 | 3126 ft | 176 kts | 46° |
| 2026-05-06 12:08 | 44.41485 | 8.72532 | 2829 ft | 167 kts | 51° |
| 2026-05-06 12:08 | 44.42210 | 8.73826 | 2291 ft | 164 kts | 68° |
| 2026-05-06 12:08 | 44.42496 | 8.75303 | 1815 ft | 152 kts | 89° |
| 2026-05-06 12:09 | 44.42502 | 8.76733 | 1392 ft | 144 kts | 98° |
| 2026-05-06 12:09 | 44.42349 | 8.78050 | 1023 ft | 135 kts | 104° |
| 2026-05-06 12:09 | 44.42172 | 8.79318 | 659 ft | 134 kts | 102° |
| 2026-05-06 12:09 | 44.41917 | 8.80586 | 391 ft | 136 kts | 110° |
| 2026-05-06 12:10 | 44.41648 | 8.81866 | 195 ft | 135 kts | 111° |
| 2026-05-06 12:10 | 44.41408 | 8.83103 | 30 ft | 130 kts | 109° |
| 2026-05-06 12:10 | 44.41192 | 8.84185 | 22 ft | 102 kts | 105° |
| 2026-05-06 12:10 | 44.41041 | 8.84976 | 15 ft | 52 kts | 103° |
| 2026-05-06 12:11 | 44.41097 | 8.85227 | 16 ft | 16 kts | 30° |
| 2026-05-06 12:11 | 44.41197 | 8.85269 | 17 ft | 15 kts | 14° |
| 2026-05-06 12:11 | 44.41230 | 8.85270 | 17 ft | 0 kts | 336° |